createdAt,value
2019-02-19T00:00:44.966Z,97709.95
2019-02-19T00:03:11.643Z,97710.14
2019-02-19T00:05:38.323Z,97712.48
2019-02-19T00:08:05.142Z,97705.48
2019-02-19T00:10:32.138Z,97707.11
2019-02-19T00:12:58.757Z,97708.15
2019-02-19T00:15:25.378Z,97705.45
2019-02-19T00:17:52.798Z,97705.06
2019-02-19T00:20:19.584Z,97690.72
2019-02-19T00:22:46.435Z,97698.80
2019-02-19T00:25:13.601Z,97698.31
2019-02-19T00:27:41.896Z,97701.56
2019-02-19T00:30:08.493Z,97695.66
2019-02-19T00:32:35.099Z,97689.70
2019-02-19T00:35:01.751Z,97682.25
2019-02-19T00:37:28.724Z,97679.52
2019-02-19T00:39:55.626Z,97681.98
2019-02-19T00:42:22.692Z,97672.83
2019-02-19T00:44:49.576Z,97679.97
2019-02-19T00:47:16.206Z,97674.53
2019-02-19T00:49:42.897Z,97682.92
2019-02-19T00:52:09.926Z,97677.22
2019-02-19T00:54:36.625Z,97678.82
2019-02-19T00:57:03.130Z,97679.67
2019-02-19T00:59:29.853Z,97678.05
2019-02-19T01:01:56.487Z,97672.24
2019-02-19T01:04:23.105Z,97670.61
2019-02-19T01:06:49.866Z,97664.33
2019-02-19T01:09:16.811Z,97664.03
2019-02-19T01:11:43.416Z,97659.57
2019-02-19T01:14:11.450Z,97652.08
2019-02-19T01:16:38.172Z,97655.41
2019-02-19T01:19:04.900Z,97650.05
2019-02-19T01:21:31.494Z,97645.48
2019-02-19T01:23:58.268Z,97642.69
2019-02-19T01:26:24.935Z,97646.20
2019-02-19T01:28:51.582Z,97641.72
2019-02-19T01:31:18.275Z,97637.57
2019-02-19T01:33:44.957Z,97637.45
2019-02-19T01:36:12.360Z,97636.54
2019-02-19T01:38:38.914Z,97630.58
2019-02-19T01:41:05.682Z,97631.27
2019-02-19T01:43:32.205Z,97622.44
2019-02-19T01:45:58.819Z,97620.94
2019-02-19T01:48:25.599Z,97621.87
2019-02-19T01:50:52.208Z,97617.30
2019-02-19T01:53:19.080Z,97619.83
2019-02-19T01:55:48.517Z,97617.31
2019-02-19T01:58:15.118Z,97615.55
2019-02-19T02:00:43.380Z,97614.13
2019-02-19T02:03:10.046Z,97607.53
2019-02-19T02:05:36.707Z,97603.67
2019-02-19T02:08:04.662Z,97612.12
2019-02-19T02:10:31.486Z,97607.49
2019-02-19T02:12:59.277Z,97601.19
2019-02-19T02:15:25.893Z,97605.02
2019-02-19T02:17:52.569Z,97604.60
2019-02-19T02:20:19.653Z,97599.98
2019-02-19T02:22:46.247Z,97598.22
2019-02-19T02:25:14.582Z,97594.61
2019-02-19T02:27:41.439Z,97593.88
2019-02-19T02:30:08.036Z,97597.09
2019-02-19T02:32:34.673Z,97595.09
2019-02-19T02:35:01.405Z,97595.42
2019-02-19T02:37:28.144Z,97586.23
2019-02-19T02:39:54.962Z,97588.67
2019-02-19T02:42:24.268Z,97590.14
2019-02-19T02:44:50.824Z,97589.73
2019-02-19T02:47:18.144Z,97584.44
2019-02-19T02:49:45.357Z,97587.09
2019-02-19T02:52:12.160Z,97592.24
2019-02-19T02:54:39.086Z,97591.35
2019-02-19T02:57:05.713Z,97590.00
2019-02-19T02:59:32.316Z,97587.73
2019-02-19T03:01:59.274Z,97589.64
2019-02-19T03:04:26.475Z,97586.43
2019-02-19T03:06:53.395Z,97592.68
2019-02-19T03:09:20.288Z,97592.41
2019-02-19T03:11:46.875Z,97592.66
2019-02-19T03:14:13.480Z,97595.98
2019-02-19T03:16:40.165Z,97597.45
2019-02-19T03:19:06.811Z,97596.34
2019-02-19T03:21:33.660Z,97590.50
2019-02-19T03:24:00.580Z,97586.76
2019-02-19T03:26:27.266Z,97587.17
2019-02-19T03:28:54.149Z,97597.19
2019-02-19T03:31:20.866Z,97592.34
2019-02-19T03:33:47.863Z,97599.48
2019-02-19T03:36:16.183Z,97596.25
2019-02-19T03:38:43.002Z,97598.23
2019-02-19T03:41:10.002Z,97596.94
2019-02-19T03:43:37.055Z,97594.88
2019-02-19T03:46:11.734Z,97594.22
2019-02-19T03:48:33.898Z,97592.17
2019-02-19T03:51:00.616Z,97592.23
2019-02-19T03:53:27.209Z,97585.66
2019-02-19T03:55:54.292Z,97593.27
2019-02-19T03:58:21.269Z,97587.84
2019-02-19T04:00:48.238Z,97591.06
2019-02-19T04:03:16.160Z,97594.34
2019-02-19T04:05:42.786Z,97593.44
2019-02-19T04:08:09.514Z,97591.45
2019-02-19T04:10:36.145Z,97591.05
2019-02-19T04:13:03.136Z,97588.59
2019-02-19T04:15:29.720Z,97584.95
2019-02-19T04:17:56.629Z,97587.14
2019-02-19T04:20:23.548Z,97593.92
2019-02-19T04:22:50.737Z,97591.19
2019-02-19T04:25:17.674Z,97596.88
2019-02-19T04:27:44.652Z,97595.78
2019-02-19T04:30:11.290Z,97591.73
2019-02-19T04:32:37.908Z,97592.59
2019-02-19T04:35:04.715Z,97588.42
2019-02-19T04:37:31.349Z,97589.27
2019-02-19T04:39:57.994Z,97591.02
2019-02-19T04:42:24.983Z,97592.60
2019-02-19T04:44:51.950Z,97597.55
2019-02-19T04:47:18.884Z,97587.78
2019-02-19T04:49:46.760Z,97592.66
2019-02-19T04:52:13.416Z,97595.92
2019-02-19T04:54:40.071Z,97591.91
2019-02-19T04:57:07.021Z,97586.34
2019-02-19T04:59:33.682Z,97584.23
2019-02-19T05:02:00.276Z,97587.31
2019-02-19T05:04:27.126Z,97590.32
2019-02-19T05:06:53.859Z,97591.35
2019-02-19T05:09:20.463Z,97592.98
2019-02-19T05:11:47.612Z,97591.91
2019-02-19T05:14:14.314Z,97592.98
2019-02-19T05:16:41.324Z,97595.50
2019-02-19T05:19:08.334Z,97604.08
2019-02-19T05:21:35.315Z,97604.31
2019-02-19T05:24:01.904Z,97602.78
2019-02-19T05:26:28.495Z,97609.06
2019-02-19T05:28:55.685Z,97610.20
2019-02-19T05:31:22.422Z,97619.48
2019-02-19T05:33:49.025Z,97618.33
2019-02-19T05:36:15.718Z,97617.45
2019-02-19T05:38:42.678Z,97612.75
2019-02-19T05:41:09.542Z,97617.15
2019-02-19T05:43:36.310Z,97617.09
2019-02-19T05:46:02.917Z,97619.91
2019-02-19T05:48:29.710Z,97625.44
2019-02-19T05:50:56.342Z,97629.33
2019-02-19T05:53:23.261Z,97629.22
2019-02-19T05:55:49.845Z,97630.33
2019-02-19T05:58:18.218Z,97634.23
2019-02-19T06:00:44.857Z,97641.60
2019-02-19T06:03:11.559Z,97638.40
2019-02-19T06:05:38.138Z,97637.39
2019-02-19T06:08:05.012Z,97646.36
2019-02-19T06:10:31.916Z,97644.05
2019-02-19T06:12:58.597Z,97647.61
2019-02-19T06:15:25.188Z,97647.16
2019-02-19T06:17:52.005Z,97657.71
2019-02-19T06:20:18.615Z,97656.05
2019-02-19T06:22:45.258Z,97665.91
2019-02-19T06:25:12.193Z,97667.05
2019-02-19T06:27:39.057Z,97663.05
2019-02-19T06:30:05.722Z,97670.77
2019-02-19T06:32:32.363Z,97674.72
2019-02-19T06:34:59.284Z,97681.39
2019-02-19T06:37:25.951Z,97682.34
2019-02-19T06:39:52.718Z,97681.04
2019-02-19T06:42:19.464Z,97683.78
2019-02-19T06:44:46.116Z,97683.97
2019-02-19T06:47:12.771Z,97686.22
2019-02-19T06:49:39.608Z,97686.02
2019-02-19T06:52:06.205Z,97683.69
2019-02-19T06:54:32.956Z,97692.31
2019-02-19T06:56:59.902Z,97689.07
2019-02-19T06:59:27.007Z,97687.20
2019-02-19T07:01:56.250Z,97691.59
2019-02-19T07:04:24.283Z,97692.91
2019-02-19T07:06:50.874Z,97697.47
2019-02-19T07:09:17.595Z,97698.48
2019-02-19T07:11:45.480Z,97707.61
2019-02-19T07:14:12.134Z,97701.50
2019-02-19T07:16:38.726Z,97703.84
2019-02-19T07:19:05.751Z,97708.32
2019-02-19T07:21:32.979Z,97705.77
2019-02-19T07:24:04.383Z,97706.98
2019-02-19T07:26:28.715Z,97699.92
2019-02-19T07:28:55.411Z,97701.17
2019-02-19T07:31:22.117Z,97696.52
2019-02-19T07:33:48.848Z,97701.34
2019-02-19T07:36:15.725Z,97704.76
2019-02-19T07:38:42.332Z,97703.98
2019-02-19T07:41:09.017Z,97701.46
2019-02-19T07:43:36.227Z,97695.52
2019-02-19T07:46:03.246Z,97705.28
2019-02-19T07:48:30.107Z,97705.84
2019-02-19T07:50:57.353Z,97700.31
2019-02-19T07:53:26.895Z,97702.66
2019-02-19T07:55:54.853Z,97702.81
2019-02-19T07:58:21.470Z,97699.55
2019-02-19T08:00:48.416Z,97706.09
2019-02-19T08:03:15.750Z,97706.09
2019-02-19T08:05:42.433Z,97702.13
2019-02-19T08:08:09.667Z,97707.03
2019-02-19T08:10:36.539Z,97707.67
2019-02-19T08:13:03.480Z,97701.25
2019-02-19T08:15:30.347Z,97701.62
2019-02-19T08:17:56.965Z,97703.02
2019-02-19T08:20:23.582Z,97698.55
2019-02-19T08:22:50.906Z,97698.66
2019-02-19T08:25:17.606Z,97692.47
2019-02-19T08:27:44.426Z,97702.88
2019-02-19T08:30:11.436Z,97700.16
2019-02-19T08:32:38.452Z,97702.60
2019-02-19T08:35:05.065Z,97697.72
2019-02-19T08:37:31.823Z,97699.16
2019-02-19T08:39:58.537Z,97699.04
2019-02-19T08:42:26.317Z,97698.90
2019-02-19T08:44:53.070Z,97702.48
2019-02-19T08:47:20.120Z,97706.84
2019-02-19T08:49:47.102Z,97707.99
2019-02-19T08:52:13.774Z,97712.97
2019-02-19T08:54:42.716Z,97712.88
2019-02-19T08:57:11.969Z,97710.46
2019-02-19T08:59:40.755Z,97713.55
2019-02-19T09:02:07.403Z,97712.07
2019-02-19T09:04:34.299Z,97712.91
2019-02-19T09:07:01.412Z,97719.17
2019-02-19T09:09:28.290Z,97719.63
2019-02-19T09:11:56.782Z,97720.17
2019-02-19T09:14:23.455Z,97728.06
2019-02-19T09:16:50.457Z,97726.53
2019-02-19T09:19:17.462Z,97728.28
2019-02-19T09:21:44.089Z,97730.68
2019-02-19T09:24:10.785Z,97724.67
2019-02-19T09:26:37.511Z,97723.81
2019-02-19T09:29:04.117Z,97723.28
2019-02-19T09:31:31.054Z,97717.38
2019-02-19T09:33:57.752Z,97718.01
2019-02-19T09:36:24.667Z,97721.64
2019-02-19T09:38:51.302Z,97726.72
2019-02-19T09:41:18.485Z,97717.80
2019-02-19T09:43:45.337Z,97714.59
2019-02-19T09:46:13.322Z,97717.67
2019-02-19T09:48:39.998Z,97716.03
2019-02-19T09:51:06.644Z,97716.25
2019-02-19T09:53:33.977Z,97717.97
2019-02-19T09:56:01.891Z,97720.59
2019-02-19T09:58:28.603Z,97715.88
2019-02-19T10:00:55.310Z,97713.95
2019-02-19T10:03:21.953Z,97718.34
2019-02-19T10:05:49.193Z,97720.99
2019-02-19T10:08:16.681Z,97724.42
2019-02-19T10:10:43.325Z,97723.49
2019-02-19T10:13:10.156Z,97718.14
2019-02-19T10:15:36.851Z,97718.59
2019-02-19T10:18:10.088Z,97725.78
2019-02-19T10:20:32.532Z,97717.79
2019-02-19T10:22:59.211Z,97713.19
2019-02-19T10:25:26.164Z,97720.09
2019-02-19T10:27:53.314Z,97705.95
2019-02-19T10:30:20.495Z,97706.91
2019-02-19T10:32:47.200Z,97708.59
2019-02-19T10:35:13.902Z,97703.38
2019-02-19T10:37:40.585Z,97703.58
2019-02-19T10:40:07.528Z,97703.47
2019-02-19T10:42:34.318Z,97702.95
2019-02-19T10:47:36.546Z,97698.42
2019-02-19T10:50:04.245Z,97698.75
2019-02-19T10:52:32.132Z,97695.98
2019-02-19T10:54:59.298Z,97701.17
2019-02-19T10:57:25.977Z,97694.20
2019-02-19T10:59:52.647Z,97693.75
2019-02-19T11:02:19.582Z,97694.42
2019-02-19T11:04:46.175Z,97694.59
2019-02-19T11:07:13.002Z,97684.59
2019-02-19T11:09:40.674Z,97685.61
2019-02-19T11:12:07.577Z,97686.48
2019-02-19T11:14:34.194Z,97678.89
2019-02-19T11:17:00.881Z,97674.57
2019-02-19T11:19:27.755Z,97680.23
2019-02-19T11:21:54.706Z,97679.41
2019-02-19T11:24:21.351Z,97682.89
2019-02-19T11:26:47.970Z,97674.97
2019-02-19T11:29:15.113Z,97675.16
2019-02-19T11:31:42.103Z,97679.32
2019-02-19T11:34:10.124Z,97674.44
2019-02-19T11:36:36.907Z,97677.55
2019-02-19T11:39:03.533Z,97669.73
2019-02-19T11:41:31.197Z,97670.22
2019-02-19T11:43:58.013Z,97670.59
2019-02-19T11:46:24.678Z,97668.14
2019-02-19T11:48:51.918Z,97668.05
2019-02-19T11:51:18.539Z,97667.63
2019-02-19T11:53:45.485Z,97670.30
2019-02-19T11:56:12.419Z,97672.41
2019-02-19T11:58:46.811Z,97668.70
2019-02-19T12:01:13.902Z,97669.27
2019-02-19T12:03:40.874Z,97660.20
2019-02-19T12:06:07.615Z,97662.69
2019-02-19T12:08:38.981Z,97660.35
2019-02-19T12:11:03.748Z,97664.16
2019-02-19T12:13:30.488Z,97658.01
2019-02-19T12:15:57.175Z,97651.13
2019-02-19T12:18:23.871Z,97648.99
2019-02-19T12:20:50.846Z,97652.79
2019-02-19T12:23:18.016Z,97650.66
2019-02-19T12:25:44.774Z,97647.48
2019-02-19T12:28:11.899Z,97653.58
2019-02-19T12:30:38.933Z,97642.33
2019-02-19T12:33:05.943Z,97646.28
2019-02-19T12:35:34.136Z,97641.13
2019-02-19T12:38:00.934Z,97637.84
2019-02-19T12:40:27.799Z,97635.12
2019-02-19T12:42:54.415Z,97633.88
2019-02-19T12:45:21.112Z,97636.14
2019-02-19T12:47:48.191Z,97630.45
2019-02-19T12:50:14.982Z,97629.16
2019-02-19T12:52:42.374Z,97634.98
2019-02-19T12:55:09.292Z,97631.39
2019-02-19T12:57:36.892Z,97631.23
2019-02-19T13:00:04.568Z,97626.19
2019-02-19T13:02:31.361Z,97623.36
2019-02-19T13:04:58.504Z,97622.02
2019-02-19T13:07:26.199Z,97622.13
2019-02-19T13:09:52.892Z,97626.25
2019-02-19T13:12:19.514Z,97625.81
2019-02-19T13:14:46.589Z,97634.28
2019-02-19T13:17:13.519Z,97628.29
2019-02-19T13:19:40.430Z,97631.66
2019-02-19T13:22:07.118Z,97623.98
2019-02-19T13:24:34.961Z,97626.38
2019-02-19T13:27:01.593Z,97624.63
2019-02-19T13:29:28.242Z,97619.12
2019-02-19T13:31:54.826Z,97614.01
2019-02-19T13:34:21.908Z,97617.67
2019-02-19T13:36:48.747Z,97615.46
2019-02-19T13:39:15.408Z,97623.97
2019-02-19T13:41:42.283Z,97630.27
2019-02-19T13:44:08.927Z,97624.31
2019-02-19T13:46:35.553Z,97621.28
2019-02-19T13:49:02.208Z,97617.53
2019-02-19T13:51:29.060Z,97621.91
2019-02-19T13:53:55.682Z,97615.54
2019-02-19T13:56:22.493Z,97615.00
2019-02-19T13:58:49.152Z,97611.83
2019-02-19T14:01:15.903Z,97614.25
2019-02-19T14:03:42.516Z,97611.27
2019-02-19T14:06:09.477Z,97613.00
2019-02-19T14:08:36.335Z,97611.91
2019-02-19T14:11:03.006Z,97615.03
2019-02-19T14:13:29.703Z,97611.70
2019-02-19T14:15:56.311Z,97614.11
2019-02-19T14:18:24.620Z,97619.23
2019-02-19T14:20:51.431Z,97621.11
2019-02-19T14:23:19.215Z,97618.44
2019-02-19T14:25:45.955Z,97616.52
2019-02-19T14:28:12.939Z,97617.67
2019-02-19T14:30:39.707Z,97617.36
2019-02-19T14:33:06.680Z,97614.98
2019-02-19T14:35:33.533Z,97620.23
2019-02-19T14:38:00.168Z,97622.22
2019-02-19T14:40:26.791Z,97619.50
2019-02-19T14:42:53.890Z,97621.23
2019-02-19T14:45:20.746Z,97625.89
2019-02-19T14:47:50.413Z,97626.33
2019-02-19T14:50:19.756Z,97624.61
2019-02-19T14:52:47.969Z,97621.70
2019-02-19T14:55:16.415Z,97619.61
2019-02-19T14:57:45.778Z,97620.67
2019-02-19T15:00:13.164Z,97624.04
2019-02-19T15:02:42.280Z,97621.20
2019-02-19T15:05:13.533Z,97623.05
2019-02-19T15:07:44.053Z,97621.72
2019-02-19T15:10:10.990Z,97626.45
2019-02-19T15:12:38.220Z,97635.12
2019-02-19T15:15:06.299Z,97628.51
2019-02-19T15:17:36.417Z,97623.70
2019-02-19T15:20:07.556Z,97627.12
2019-02-19T15:22:41.358Z,97623.37
2019-02-19T15:25:11.411Z,97625.42
2019-02-19T15:27:39.827Z,97628.22
2019-02-19T15:30:08.289Z,97627.09
2019-02-19T15:32:34.930Z,97626.47
2019-02-19T15:35:12.333Z,97624.38
2019-02-19T15:37:39.190Z,97618.98
2019-02-19T15:40:06.263Z,97622.78
2019-02-19T15:42:37.165Z,97619.30
2019-02-19T15:45:06.254Z,97615.25
2019-02-19T15:47:33.050Z,97620.55
2019-02-19T15:50:01.840Z,97615.72
2019-02-19T15:52:35.152Z,97618.92
2019-02-19T15:55:04.447Z,97613.88
2019-02-19T15:57:38.516Z,97622.50
2019-02-19T16:00:03.507Z,97626.77
2019-02-19T16:02:32.148Z,97623.91
2019-02-19T16:05:02.055Z,97627.69
2019-02-19T16:07:33.398Z,97625.11
2019-02-19T16:10:01.040Z,97628.75
2019-02-19T16:12:28.556Z,97626.24
2019-02-19T16:14:57.535Z,97626.62
2019-02-19T16:17:25.162Z,97625.88
2019-02-19T16:19:56.953Z,97631.64
2019-02-19T16:22:22.038Z,97628.52
2019-02-19T16:24:49.845Z,97633.92
2019-02-19T16:27:17.712Z,97640.33
2019-02-19T16:29:47.425Z,97642.19
2019-02-19T16:32:15.229Z,97651.80
2019-02-19T16:34:44.478Z,97655.30
2019-02-19T16:37:12.376Z,97661.79
2019-02-19T16:39:42.277Z,97662.95
2019-02-19T16:42:12.018Z,97667.80
2019-02-19T16:44:43.269Z,97664.90
2019-02-19T16:47:11.058Z,97669.55
2019-02-19T16:49:41.786Z,97669.98
2019-02-19T16:52:13.034Z,97674.19
2019-02-19T16:54:42.086Z,97671.95
2019-02-19T16:57:10.362Z,97677.27
2019-02-19T16:59:41.349Z,97676.03
2019-02-19T17:02:08.273Z,97684.27
2019-02-19T17:04:35.067Z,97686.30
2019-02-19T17:07:01.912Z,97691.16
2019-02-19T17:09:28.550Z,97692.13
2019-02-19T17:11:55.728Z,97693.94
2019-02-19T17:14:32.763Z,97702.16
2019-02-19T17:16:55.281Z,97699.27
2019-02-19T17:19:22.888Z,97702.67
2019-02-19T17:21:50.597Z,97710.28
2019-02-19T17:24:18.698Z,97713.97
2019-02-19T17:26:47.371Z,97710.31
2019-02-19T17:29:15.054Z,97715.44
2019-02-19T17:31:42.876Z,97712.29
2019-02-19T17:34:10.734Z,97715.34
2019-02-19T17:36:40.609Z,97717.06
2019-02-19T17:39:11.555Z,97721.29
2019-02-19T17:41:39.433Z,97718.50
2019-02-19T17:44:06.113Z,97730.52
2019-02-19T17:46:34.005Z,97734.63
2019-02-19T17:49:08.058Z,97737.51
2019-02-19T17:51:35.403Z,97732.11
2019-02-19T17:54:03.144Z,97736.81
2019-02-19T17:56:31.016Z,97744.72
2019-02-19T17:59:02.465Z,97744.08
2019-02-19T18:01:33.350Z,97744.52
2019-02-19T18:04:00.310Z,97748.45
2019-02-19T18:06:26.952Z,97750.08
2019-02-19T18:08:53.555Z,97752.88
2019-02-19T18:11:20.730Z,97750.27
2019-02-19T18:13:47.426Z,97755.16
2019-02-19T18:16:15.036Z,97757.12
2019-02-19T18:18:41.794Z,97759.48
2019-02-19T18:21:08.970Z,97760.00
2019-02-19T18:23:35.561Z,97763.91
2019-02-19T18:26:02.160Z,97768.63
2019-02-19T18:28:28.942Z,97770.22
2019-02-19T18:30:55.610Z,97769.64
2019-02-19T18:33:22.820Z,97766.20
2019-02-19T18:35:49.673Z,97763.28
2019-02-19T18:38:16.863Z,97766.91
2019-02-19T18:40:43.861Z,97773.11
2019-02-19T18:43:10.804Z,97775.73
2019-02-19T18:45:39.245Z,97776.17
2019-02-19T18:48:06.821Z,97775.20
2019-02-19T18:50:33.952Z,97779.34
2019-02-19T18:53:00.736Z,97784.16
2019-02-19T18:55:27.520Z,97789.14
2019-02-19T18:57:54.510Z,97787.77
2019-02-19T19:00:22.033Z,97781.95
2019-02-19T19:02:49.794Z,97786.51
2019-02-19T19:05:17.279Z,97785.04
2019-02-19T19:07:45.016Z,97786.35
2019-02-19T19:10:11.657Z,97793.30
2019-02-19T19:12:39.553Z,97793.64
2019-02-19T19:15:07.181Z,97794.42
2019-02-19T19:17:33.851Z,97800.89
2019-02-19T19:20:00.497Z,97793.73
2019-02-19T19:22:27.574Z,97800.92
2019-02-19T19:24:54.492Z,97802.23
2019-02-19T19:27:21.372Z,97803.52
2019-02-19T19:29:48.019Z,97804.70
2019-02-19T19:32:14.962Z,97798.95
2019-02-19T19:34:41.868Z,97799.61
2019-02-19T19:37:10.784Z,97804.91
2019-02-19T19:39:37.663Z,97805.27
2019-02-19T19:42:04.668Z,97804.15
2019-02-19T19:44:31.664Z,97806.47
2019-02-19T19:46:58.708Z,97805.31
2019-02-19T19:49:25.911Z,97804.69
2019-02-19T19:51:52.670Z,97809.42
2019-02-19T19:54:19.623Z,97809.27
2019-02-19T19:56:46.304Z,97810.08
2019-02-19T19:59:13.461Z,97813.87
2019-02-19T20:01:40.341Z,97813.39
2019-02-19T20:04:07.041Z,97820.58
2019-02-19T20:06:33.941Z,97815.52
2019-02-19T20:09:00.602Z,97813.71
2019-02-19T20:11:27.492Z,97813.89
2019-02-19T20:13:54.398Z,97817.64
2019-02-19T20:16:21.828Z,97816.81
2019-02-19T20:18:50.665Z,97821.06
2019-02-19T20:21:26.576Z,97815.66
2019-02-19T20:23:49.988Z,97815.66
2019-02-19T20:26:16.929Z,97815.81
2019-02-19T20:28:43.962Z,97818.77
2019-02-19T20:31:11.031Z,97820.24
2019-02-19T20:33:38.136Z,97813.35
2019-02-19T20:36:04.886Z,97815.97
2019-02-19T20:38:31.897Z,97832.17
2019-02-19T20:40:58.740Z,97839.52
2019-02-19T20:43:25.643Z,97825.77
2019-02-19T20:45:52.263Z,97825.31
2019-02-19T20:48:19.226Z,97821.04
2019-02-19T20:50:45.838Z,97829.05
2019-02-19T20:53:12.802Z,97827.89
2019-02-19T20:55:40.631Z,97821.81
2019-02-19T20:58:07.149Z,97817.70
2019-02-19T21:00:33.716Z,97811.95
2019-02-19T21:03:00.387Z,97811.92
2019-02-19T21:05:27.044Z,97812.34
2019-02-19T21:07:53.635Z,97822.13
2019-02-19T21:10:20.457Z,97820.19
2019-02-19T21:12:47.260Z,97816.69
2019-02-19T21:15:14.369Z,97820.45
2019-02-19T21:17:41.019Z,97819.31
2019-02-19T21:20:07.558Z,97818.35
2019-02-19T21:22:34.363Z,97819.28
2019-02-19T21:25:01.071Z,97814.05
2019-02-19T21:27:27.641Z,97815.18
2019-02-19T21:29:55.148Z,97820.73
2019-02-19T21:32:21.680Z,97816.61
2019-02-19T21:34:48.450Z,97812.89
2019-02-19T21:37:15.555Z,97814.15
2019-02-19T21:39:42.339Z,97814.75
2019-02-19T21:42:08.886Z,97818.67
2019-02-19T21:44:35.459Z,97811.71
2019-02-19T21:47:02.016Z,97809.08
2019-02-19T21:49:28.764Z,97810.66
2019-02-19T21:51:55.946Z,97817.69
2019-02-19T21:54:22.696Z,97808.66
2019-02-19T21:56:49.560Z,97817.63
2019-02-19T21:59:16.343Z,97817.23
2019-02-19T22:01:45.989Z,97817.50
2019-02-19T22:04:12.859Z,97812.03
2019-02-19T22:06:39.429Z,97815.59
2019-02-19T22:09:06.100Z,97813.21
2019-02-19T22:11:33.081Z,97815.42
2019-02-19T22:13:59.791Z,97810.65
2019-02-19T22:16:26.357Z,97813.30
2019-02-19T22:18:53.194Z,97814.69
2019-02-19T22:21:20.035Z,97818.44
2019-02-19T22:23:46.687Z,97813.13
2019-02-19T22:26:13.349Z,97810.16
2019-02-19T22:28:40.308Z,97811.85
2019-02-19T22:31:06.920Z,97809.23
2019-02-19T22:33:34.310Z,97808.78
2019-02-19T22:36:01.190Z,97811.84
2019-02-19T22:38:27.781Z,97801.97
2019-02-19T22:40:55.431Z,97802.27
2019-02-19T22:43:22.461Z,97805.17
2019-02-19T22:45:49.142Z,97802.81
2019-02-19T22:48:15.804Z,97803.06
2019-02-19T22:50:43.063Z,97807.44
2019-02-19T22:53:09.686Z,97802.90
2019-02-19T22:55:36.676Z,97804.91
2019-02-19T22:58:03.318Z,97809.03
2019-02-19T23:00:30.241Z,97814.01
2019-02-19T23:02:56.836Z,97810.41
2019-02-19T23:05:23.783Z,97811.52
2019-02-19T23:07:50.399Z,97814.22
2019-02-19T23:10:17.028Z,97818.08
2019-02-19T23:12:43.960Z,97822.63
2019-02-19T23:15:10.906Z,97815.86
2019-02-19T23:17:37.893Z,97818.68
2019-02-19T23:20:04.542Z,97815.36
2019-02-19T23:22:31.207Z,97821.19
2019-02-19T23:24:58.111Z,97822.46
2019-02-19T23:27:25.054Z,97825.48
2019-02-19T23:29:52.057Z,97828.98
2019-02-19T23:32:19.236Z,97827.52
2019-02-19T23:34:46.235Z,97816.97
2019-02-19T23:37:13.542Z,97817.58
2019-02-19T23:39:43.566Z,97816.25
2019-02-19T23:42:09.066Z,97821.40
2019-02-19T23:44:35.738Z,97819.28
2019-02-19T23:47:02.377Z,97820.69
2019-02-19T23:49:29.358Z,97826.20
2019-02-19T23:51:56.091Z,97816.80
2019-02-19T23:54:22.751Z,97821.31
2019-02-19T23:56:49.662Z,97822.27
2019-02-19T23:59:16.592Z,97821.80
